Time;durP1;ratioP1;P1;durP2;ratioP2;P2;SDS_P1;SDS_P2;PMS_P1;PMS_P2;Temp;Humidity;BMP_temperature;BMP_pressure;BME280_temperature;BME280_humidity;BME280_pressure;Samples;Min_cycle;Max_cycle;Signal;HPM_P1;HPM_P2
2021/01/08 06:59:53;;;;;;;;;;;2.90;87.30;;;;;;2116061;27;20375;-59
2021/01/08 07:00:56;;;;;;;4.35;3.75;;;2.70;87.80;;;;;;2116093;28;20707;-60
2021/01/08 07:02:03;;;;;;;5.35;4.45;;;2.70;87.40;;;;;;2116614;28;20083;-60
2021/01/08 07:03:07;;;;;;;5.18;4.68;;;2.80;87.70;;;;;;2114884;28;20693;-60
2021/01/08 07:04:12;;;;;;;5.95;5.10;;;2.90;87.80;;;;;;2116564;28;20033;-60
2021/01/08 07:05:17;;;;;;;6.18;4.82;;;3.10;87.90;;;;;;2116132;27;20088;-60
2021/01/08 07:06:18;;;;;;;6.55;5.22;;;3.30;87.80;;;;;;2116292;28;20031;-60
2021/01/08 07:07:27;;;;;;;5.53;4.90;;;3.40;87.50;;;;;;2115634;28;20561;-60
2021/01/08 07:08:28;;;;;;;6.07;5.30;;;3.60;87.10;;;;;;2116124;28;20031;-60
2021/01/08 07:09:39;;;;;;;6.75;5.13;;;3.80;86.80;;;;;;2116245;28;20114;-60
2021/01/08 07:10:39;;;;;;;5.65;5.00;;;4.00;86.50;;;;;;2116111;28;20038;-60
2021/01/08 07:11:41;;;;;;;6.78;5.55;;;4.10;86.00;;;;;;2115910;28;20442;-60
2021/01/08 07:12:43;;;;;;;6.30;5.28;;;4.30;85.60;;;;;;2116712;27;20110;-60
2021/01/08 07:13:43;;;;;;;5.90;5.30;;;4.40;85.20;;;;;;2115796;28;20016;-60
2021/01/08 07:14:45;;;;;;;7.07;5.65;;;4.60;84.80;;;;;;2116458;28;20037;-60
2021/01/08 07:15:46;;;;;;;8.65;6.68;;;4.70;84.40;;;;;;2116810;28;20032;-60
2021/01/08 07:16:47;;;;;;;7.45;6.53;;;4.80;84.70;;;;;;2115573;28;20060;-60
2021/01/08 07:17:55;;;;;;;7.40;5.85;;;4.90;83.60;;;;;;2114786;27;20502;-60
2021/01/08 07:19:08;;;;;;;10.02;7.03;;;5.10;83.20;;;;;;2114787;28;20043;-61
2021/01/08 07:20:10;;;;;;;9.13;7.00;;;5.20;82.70;;;;;;2116064;28;20028;-60
2021/01/08 07:21:22;;;;;;;7.93;6.30;;;5.30;82.40;;;;;;2115479;28;20099;-60
2021/01/08 07:22:37;;;;;;;8.05;6.75;;;5.40;81.90;;;;;;2116197;28;20031;-60
2021/01/08 07:23:39;;;;;;;8.18;6.95;;;5.50;81.70;;;;;;2116633;28;20027;-61
2021/01/08 07:24:41;;;;;;;9.23;6.85;;;5.60;81.50;;;;;;2115141;28;20032;-60
2021/01/08 07:25:42;;;;;;;8.38;7.25;;;5.70;81.20;;;;;;2116063;28;20342;-60
2021/01/08 07:26:42;;;;;;;8.43;7.00;;;5.70;81.00;;;;;;2116398;28;20028;-60
2021/01/08 07:27:44;;;;;;;10.57;7.43;;;5.80;81.00;;;;;;2116093;28;20043;-60
2021/01/08 07:28:50;;;;;;;10.18;7.78;;;5.90;80.80;;;;;;2114794;28;20857;-60
2021/01/08 07:29:59;;;;;;;9.05;7.22;;;5.90;80.30;;;;;;2116039;28;20035;-60
2021/01/08 07:31:09;;;;;;;8.30;6.60;;;6.00;80.10;;;;;;2115322;28;20136;-60
2021/01/08 07:32:10;;;;;;;9.63;7.47;;;6.10;79.80;;;;;;2115448;28;20035;-60
2021/01/08 07:33:17;;;;;;;9.18;7.00;;;6.10;79.80;;;;;;2115332;28;20044;-60
2021/01/08 07:34:17;;;;;;;9.73;6.90;;;6.20;79.50;;;;;;2115356;28;20034;-60
2021/01/08 07:35:22;;;;;;;9.13;7.22;;;6.20;79.40;;;;;;2116051;28;20020;-60
2021/01/08 07:36:24;;;;;;;9.63;7.32;;;6.30;79.20;;;;;;2116023;28;20036;-60
2021/01/08 07:38:17;;;;;;;9.73;7.70;;;6.30;79.40;;;;;;2115114;28;20077;-60
2021/01/08 07:39:42;;;;;;;7.38;6.20;;;6.40;78.60;;;;;;2099504;28;20184;-60
2021/01/08 07:40:49;;;;;;;9.75;6.88;;;6.50;78.30;;;;;;2115788;28;20032;-60
2021/01/08 07:41:50;;;;;;;7.85;6.47;;;6.50;78.20;;;;;;2115135;28;20624;-60
2021/01/08 07:43:07;;;;;;;9.05;7.25;;;6.50;78.20;;;;;;2115971;28;20062;-60
2021/01/08 07:44:31;;;;;;;8.63;6.65;;;6.50;77.90;;;;;;2115889;28;20063;-60
2021/01/08 07:45:50;;;;;;;7.95;6.60;;;6.60;77.50;;;;;;2116285;28;20039;-59
2021/01/08 07:46:51;;;;;;;7.30;6.35;;;6.60;77.30;;;;;;2116403;28;20122;-60
2021/01/08 07:47:52;;;;;;;7.47;6.13;;;6.60;77.40;;;;;;2114397;28;20035;-60
2021/01/08 07:48:55;;;;;;;7.85;6.55;;;6.70;77.40;;;;;;2114998;27;20035;-61
2021/01/08 07:50:14;;;;;;;7.93;6.55;;;6.70;77.40;;;;;;2116711;28;20035;-60
2021/01/08 07:51:15;;;;;;;8.43;6.68;;;6.70;77.00;;;;;;2114753;28;20062;-60
2021/01/08 07:52:35;;;;;;;7.15;5.97;;;6.70;77.20;;;;;;2116326;28;20633;-60
2021/01/08 07:53:44;;;;;;;7.65;6.25;;;6.80;76.80;;;;;;2115988;28;20020;-60
2021/01/08 07:54:55;;;;;;;7.00;5.75;;;6.80;76.90;;;;;;2116120;28;20076;-60
2021/01/08 07:56:05;;;;;;;6.80;5.63;;;6.80;76.80;;;;;;2116597;28;20063;-60
2021/01/08 07:57:06;;;;;;;7.65;6.35;;;6.80;76.60;;;;;;2116763;28;20031;-60
2021/01/08 07:58:06;;;;;;;6.80;5.53;;;6.80;76.80;;;;;;2116763;28;20407;-60
2021/01/08 07:59:07;;;;;;;6.85;5.70;;;6.80;76.60;;;;;;2113890;28;20039;-60
2021/01/08 08:00:26;;;;;;;6.10;5.35;;;6.80;76.40;;;;;;2115876;28;20031;-60
2021/01/08 08:01:27;;;;;;;7.38;6.18;;;6.90;76.10;;;;;;2115580;28;20020;-60
2021/01/08 08:02:34;;;;;;;5.65;4.95;;;6.90;76.30;;;;;;2115170;27;20600;-60
2021/01/08 08:03:35;;;;;;;7.57;5.88;;;6.90;76.10;;;;;;2116823;28;20035;-60
2021/01/08 08:04:36;;;;;;;6.55;5.55;;;6.90;76.10;;;;;;2116192;28;20027;-59
2021/01/08 08:05:37;;;;;;;6.38;5.40;;;6.90;76.10;;;;;;2116625;28;20024;-60
2021/01/08 08:06:41;;;;;;;6.30;5.18;;;6.90;76.10;;;;;;2116151;28;20405;-59
2021/01/08 08:07:42;;;;;;;5.70;5.20;;;6.90;76.10;;;;;;2116557;27;20103;-59
2021/01/08 08:08:42;;;;;;;6.18;5.40;;;6.90;76.10;;;;;;2114744;28;20412;-60
2021/01/08 08:09:43;;;;;;;6.22;5.30;;;7.00;76.20;;;;;;2116128;28;20466;-60
2021/01/08 08:10:44;;;;;;;6.10;5.43;;;7.00;76.10;;;;;;2113137;27;20027;-60
2021/01/08 08:11:44;;;;;;;6.95;5.30;;;7.00;76.10;;;;;;2109633;28;20365;-60
2021/01/08 08:12:48;;;;;;;5.68;4.88;;;7.00;75.90;;;;;;2109125;28;20548;-60
2021/01/08 08:13:48;;;;;;;5.82;5.22;;;7.00;75.80;;;;;;2107133;28;20028;-60
2021/01/08 08:14:59;;;;;;;5.97;5.00;;;7.00;75.90;;;;;;2109870;28;20067;-60
2021/01/08 08:15:59;;;;;;;6.57;5.55;;;7.00;75.60;;;;;;2108217;28;20030;-59
2021/01/08 08:17:00;;;;;;;7.43;5.97;;;7.00;75.80;;;;;;2110972;28;20474;-60
2021/01/08 08:18:01;;;;;;;6.70;6.00;;;7.00;75.70;;;;;;2109204;28;20115;-59
2021/01/08 08:19:03;;;;;;;6.45;5.75;;;7.00;75.60;;;;;;2108623;28;20036;-61
2021/01/08 08:20:23;;;;;;;5.50;4.95;;;7.00;75.60;;;;;;2110736;28;20036;-58
2021/01/08 08:21:23;;;;;;;7.05;5.50;;;7.00;75.30;;;;;;2110656;28;20024;-60
2021/01/08 08:22:36;;;;;;;8.23;6.00;;;7.10;75.60;;;;;;2109970;28;20024;-59
2021/01/08 08:23:37;;;;;;;7.03;5.75;;;7.10;75.40;;;;;;2110258;28;20051;-59
2021/01/08 08:24:38;;;;;;;6.55;5.40;;;7.10;75.50;;;;;;2110482;28;20040;-59
2021/01/08 08:25:39;;;;;;;6.25;5.40;;;7.10;75.50;;;;;;2109269;28;20036;-59
2021/01/08 08:26:40;;;;;;;7.53;6.05;;;7.10;75.40;;;;;;2109795;28;20059;-60
2021/01/08 08:27:41;;;;;;;7.78;6.05;;;7.10;75.40;;;;;;2110762;28;20107;-61
2021/01/08 08:28:41;;;;;;;6.88;6.10;;;7.10;75.30;;;;;;2109644;28;20027;-61
2021/01/08 08:29:42;;;;;;;7.50;6.18;;;7.10;75.30;;;;;;2110352;28;20119;-60
2021/01/08 08:30:43;;;;;;;7.18;5.70;;;7.10;75.20;;;;;;2109850;28;20022;-61
2021/01/08 08:31:50;;;;;;;6.22;5.50;;;7.10;75.10;;;;;;2110756;28;20044;-60
2021/01/08 08:32:51;;;;;;;8.48;6.30;;;7.10;75.00;;;;;;2109509;28;20035;-61
2021/01/08 08:33:52;;;;;;;5.95;5.28;;;7.10;75.00;;;;;;2109891;28;20059;-61
2021/01/08 08:34:53;;;;;;;5.93;5.30;;;7.10;75.00;;;;;;2110137;28;20048;-61
2021/01/08 08:35:53;;;;;;;7.32;5.63;;;7.20;75.20;;;;;;2107284;28;20020;-61
2021/01/08 08:37:03;;;;;;;6.30;5.70;;;7.20;75.20;;;;;;2109807;28;20032;-61
2021/01/08 08:38:07;;;;;;;;;;;7.20;75.20;;;;;;2110942;28;20011;-61
2021/01/08 08:39:13;;;;;;;6.57;5.65;;;7.20;74.60;;;;;;2109160;28;19994;-60
2021/01/08 08:40:14;;;;;;;6.43;5.82;;;7.20;74.90;;;;;;2110554;28;20060;-61
2021/01/08 08:41:15;;;;;;;6.70;5.25;;;7.30;75.00;;;;;;2101263;28;20701;-61
2021/01/08 08:42:20;;;;;;;6.10;5.50;;;7.20;75.00;;;;;;2101352;28;20032;-60
2021/01/08 08:43:21;;;;;;;6.13;5.32;;;7.30;74.80;;;;;;2110250;28;20039;-61
2021/01/08 08:44:22;;;;;;;6.65;5.85;;;7.30;74.80;;;;;;2110166;28;20020;-61
2021/01/08 08:45:31;;;;;;;6.18;5.50;;;7.30;74.80;;;;;;2110542;28;20132;-61
2021/01/08 08:46:45;;;;;;;6.80;5.72;;;7.30;74.50;;;;;;2110471;28;20384;-61
2021/01/08 08:47:51;;;;;;;5.65;5.15;;;7.30;74.40;;;;;;2109572;28;20640;-61
2021/01/08 08:48:52;;;;;;;6.75;5.63;;;7.30;74.50;;;;;;2108376;28;20454;-61
2021/01/08 08:49:52;;;;;;;5.85;5.28;;;7.30;74.60;;;;;;2109413;28;20028;-61
2021/01/08 08:50:53;;;;;;;6.15;5.55;;;7.30;74.70;;;;;;2109900;28;20525;-61
2021/01/08 08:51:59;;;;;;;7.68;6.07;;;7.30;74.60;;;;;;2110095;28;20051;-61
2021/01/08 08:53:13;;;;;;;6.20;5.57;;;7.30;74.50;;;;;;2110180;28;20028;-61
2021/01/08 08:54:14;;;;;;;6.05;5.20;;;7.30;74.10;;;;;;2110052;28;20024;-60
2021/01/08 08:55:32;;;;;;;6.95;5.50;;;7.30;74.40;;;;;;2109982;28;20026;-61
2021/01/08 08:56:32;;;;;;;6.18;5.47;;;7.30;74.00;;;;;;2109765;28;20019;-60
2021/01/08 08:57:34;;;;;;;8.68;5.15;;;7.30;74.30;;;;;;2110569;28;20028;-59
2021/01/08 08:58:43;;;;;;;6.90;5.45;;;7.30;74.30;;;;;;2108148;28;20027;-60
2021/01/08 08:59:45;;;;;;;6.70;5.78;;;7.30;74.10;;;;;;2109423;28;20024;-60
2021/01/08 09:00:45;;;;;;;7.55;5.50;;;7.40;74.40;;;;;;2109854;28;20036;-60
2021/01/08 09:01:46;;;;;;;7.85;6.20;;;7.40;74.40;;;;;;2110060;28;20062;-60
2021/01/08 09:02:47;;;;;;;5.75;5.15;;;7.40;74.30;;;;;;2109296;28;20081;-60
2021/01/08 09:03:47;;;;;;;7.18;6.15;;;7.40;74.30;;;;;;2110422;28;20053;-60
2021/01/08 09:04:56;;;;;;;6.97;5.57;;;7.40;74.30;;;;;;2110311;28;20023;-60
2021/01/08 09:05:57;;;;;;;6.82;5.85;;;7.40;74.20;;;;;;2109934;28;20068;-60
2021/01/08 09:07:02;;;;;;;7.00;5.70;;;7.40;74.30;;;;;;2110533;28;20027;-60
2021/01/08 09:08:31;;;;;;;6.70;5.85;;;7.40;74.30;;;;;;2109425;28;20101;-60
2021/01/08 09:09:38;;;;;;;7.60;6.60;;;7.40;74.20;;;;;;2105235;28;20028;-60
2021/01/08 09:10:54;;;;;;;8.35;6.22;;;7.50;74.40;;;;;;2110181;28;20028;-60
2021/01/08 09:12:07;;;;;;;7.90;5.85;;;7.50;74.20;;;;;;2110994;28;20027;-60
2021/01/08 09:13:14;;;;;;;6.18;5.57;;;7.50;74.20;;;;;;2110152;28;20114;-60
2021/01/08 09:14:19;;;;;;;7.32;6.03;;;7.50;74.20;;;;;;2109429;28;20012;-61
2021/01/08 09:15:28;;;;;;;7.03;5.97;;;7.50;74.10;;;;;;2110176;28;20023;-60
2021/01/08 09:16:40;;;;;;;7.65;6.18;;;7.50;73.90;;;;;;2109930;28;20022;-60
2021/01/08 09:17:43;;;;;;;7.05;6.13;;;7.50;73.90;;;;;;2109645;28;20035;-60
2021/01/08 09:18:48;;;;;;;8.45;6.22;;;7.50;73.90;;;;;;2108379;28;20114;-60
2021/01/08 09:19:56;;;;;;;6.88;6.05;;;7.50;73.90;;;;;;2108648;28;20024;-60
2021/01/08 09:21:13;;;;;;;7.45;6.22;;;7.50;73.90;;;;;;2109838;28;20354;-60
2021/01/08 09:22:15;;;;;;;7.35;5.75;;;7.60;73.90;;;;;;2110310;28;20032;-61
2021/01/08 09:23:17;;;;;;;7.43;5.95;;;7.60;74.10;;;;;;2109009;28;20031;-60
2021/01/08 09:24:39;;;;;;;6.85;6.05;;;7.60;74.20;;;;;;2110390;28;20118;-60
2021/01/08 09:25:40;;;;;;;7.80;6.05;;;7.60;74.50;;;;;;2110305;28;20028;-60
2021/01/08 09:26:44;;;;;;;7.78;6.30;;;7.60;74.10;;;;;;2110625;28;20032;-60
2021/01/08 09:27:45;;;;;;;6.13;5.38;;;7.60;74.00;;;;;;2109173;28;21943;-60
2021/01/08 09:28:50;;;;;;;8.10;6.10;;;7.70;74.10;;;;;;2107889;28;20059;-60
2021/01/08 09:29:51;;;;;;;9.75;6.72;;;7.60;73.80;;;;;;2109652;28;20024;-60
2021/01/08 09:30:52;;;;;;;7.88;6.38;;;7.60;73.80;;;;;;2107733;28;20069;-60
2021/01/08 09:31:53;;;;;;;8.02;6.50;;;7.70;73.80;;;;;;2109383;28;20027;-60
2021/01/08 09:32:53;;;;;;;7.38;6.13;;;7.70;73.80;;;;;;2102120;28;20028;-59
2021/01/08 09:33:58;;;;;;;9.20;6.72;;;7.60;73.70;;;;;;2108876;28;20086;-60
2021/01/08 09:35:02;;;;;;;6.90;5.85;;;7.70;73.60;;;;;;2109945;28;20070;-60
2021/01/08 09:36:03;;;;;;;6.97;5.78;;;7.70;73.70;;;;;;2109952;28;20061;-59
2021/01/08 09:37:16;;;;;;;6.60;5.63;;;7.70;73.70;;;;;;2114052;27;20070;-60
2021/01/08 09:38:23;;;;;;;7.32;6.22;;;7.70;73.40;;;;;;2115941;27;20616;-60
2021/01/08 09:39:28;;;;;;;6.75;5.63;;;7.70;73.50;;;;;;2108252;28;20035;-60
2021/01/08 09:40:34;;;;;;;7.57;6.28;;;7.70;73.60;;;;;;2109550;28;20126;-60
2021/01/08 09:41:39;;;;;;;6.72;6.05;;;7.80;73.40;;;;;;2109902;28;20028;-60
2021/01/08 09:42:41;;;;;;;7.75;6.07;;;7.80;73.50;;;;;;2111288;27;20046;-59
2021/01/08 09:43:41;;;;;;;8.43;7.00;;;7.80;73.60;;;;;;2110023;27;20032;-60
2021/01/08 09:44:42;;;;;;;7.30;6.53;;;7.80;73.60;;;;;;2108799;28;20035;-59
2021/01/08 09:45:42;;;;;;;8.35;6.57;;;7.80;73.60;;;;;;2109922;28;20031;-59
2021/01/08 09:46:58;;;;;;;9.40;6.70;;;7.80;73.60;;;;;;2110047;28;20077;-59
2021/01/08 09:47:59;;;;;;;8.13;6.72;;;7.80;73.30;;;;;;2108977;28;20044;-60
2021/01/08 09:49:06;;;;;;;7.55;6.63;;;7.80;74.20;;;;;;2107129;28;20031;-60
2021/01/08 09:50:08;;;;;;;7.90;6.70;;;7.80;73.30;;;;;;2109877;28;20113;-59
2021/01/08 09:51:10;;;;;;;8.43;6.55;;;7.90;73.50;;;;;;2109049;28;20032;-60
2021/01/08 09:52:12;;;;;;;7.50;6.70;;;7.90;73.50;;;;;;2109378;28;20085;-60
2021/01/08 09:53:13;;;;;;;7.70;6.13;;;7.90;73.50;;;;;;2109482;28;20027;-60
2021/01/08 09:54:13;;;;;;;10.48;6.97;;;7.90;73.50;;;;;;2109783;28;20331;-60
2021/01/08 09:55:23;;;;;;;6.88;6.15;;;7.90;73.50;;;;;;2100837;28;20398;-59
2021/01/08 09:56:24;;;;;;;8.07;6.70;;;7.90;73.30;;;;;;2095505;28;20029;-60
2021/01/08 09:57:28;;;;;;;9.52;7.15;;;7.90;73.40;;;;;;2109030;28;20044;-60
2021/01/08 09:58:29;;;;;;;6.80;6.00;;;7.90;73.30;;;;;;2108714;28;20048;-60
2021/01/08 09:59:29;;;;;;;7.18;5.97;;;7.90;73.60;;;;;;2109283;28;20077;-60
2021/01/08 10:00:32;;;;;;;8.23;5.93;;;7.90;73.30;;;;;;2109853;28;20034;-60
2021/01/08 10:01:51;;;;;;;7.10;6.18;;;7.90;73.30;;;;;;2109365;28;20583;-60
2021/01/08 10:02:52;;;;;;;7.35;6.22;;;8.00;73.10;;;;;;2109137;28;20044;-59
2021/01/08 10:03:52;;;;;;;9.15;6.47;;;8.00;73.30;;;;;;2110390;28;20097;-59
2021/01/08 10:04:53;;;;;;;7.20;6.28;;;8.00;73.30;;;;;;2109247;28;20042;-59
2021/01/08 10:06:09;;;;;;;7.50;6.18;;;8.00;73.20;;;;;;2109611;28;20044;-59
2021/01/08 10:07:09;;;;;;;6.88;5.88;;;8.00;72.90;;;;;;2110018;28;20028;-58
2021/01/08 10:08:20;;;;;;;7.97;6.70;;;8.00;73.10;;;;;;2108871;28;20028;-59
2021/01/08 10:09:21;;;;;;;7.22;6.47;;;8.10;73.00;;;;;;2108870;28;20043;-59
2021/01/08 10:10:27;;;;;;;7.97;6.43;;;8.10;73.20;;;;;;2109357;28;20036;-59
2021/01/08 10:11:28;;;;;;;7.80;6.28;;;8.10;73.00;;;;;;2109206;28;20020;-59
2021/01/08 10:12:28;;;;;;;8.07;6.78;;;8.10;73.10;;;;;;2109222;28;20050;-59
2021/01/08 10:13:29;;;;;;;7.45;6.50;;;8.10;73.10;;;;;;2109891;28;20020;-58
2021/01/08 10:14:31;;;;;;;8.45;6.45;;;8.10;73.10;;;;;;2109764;28;20407;-59
2021/01/08 10:15:41;;;;;;;9.40;7.60;;;8.10;73.20;;;;;;2109109;28;20027;-59
2021/01/08 10:16:42;;;;;;;7.03;6.35;;;8.10;73.00;;;;;;2109938;28;20051;-59
2021/01/08 10:17:46;;;;;;;9.40;7.45;;;8.10;73.10;;;;;;2108962;28;20047;-59
2021/01/08 10:18:50;;;;;;;8.23;6.68;;;8.20;73.00;;;;;;2107728;28;20036;-59
2021/01/08 10:19:52;;;;;;;8.65;7.20;;;8.10;72.70;;;;;;2109237;28;20036;-59
2021/01/08 10:21:14;;;;;;;8.50;7.05;;;8.20;72.70;;;;;;2108746;28;20028;-59
2021/01/08 10:22:19;;;;;;;8.25;6.88;;;8.10;72.70;;;;;;2108893;28;20020;-60
2021/01/08 10:23:22;;;;;;;9.38;7.47;;;8.20;72.60;;;;;;2108337;28;20024;-59
2021/01/08 10:24:27;;;;;;;8.50;6.82;;;8.20;72.70;;;;;;2108957;28;20384;-59
2021/01/08 10:25:29;;;;;;;9.45;8.05;;;8.20;72.70;;;;;;2109267;28;20055;-59
2021/01/08 10:26:29;;;;;;;9.93;7.68;;;8.20;72.70;;;;;;2105730;28;20035;-59
2021/01/08 10:27:30;;;;;;;9.38;7.68;;;8.20;72.80;;;;;;2108911;28;20034;-59
2021/01/08 10:28:30;;;;;;;10.45;8.50;;;8.20;72.80;;;;;;2108805;28;20072;-59
2021/01/08 10:29:32;;;;;;;9.05;7.38;;;8.20;73.60;;;;;;2108792;28;20084;-59
2021/01/08 10:30:33;;;;;;;10.13;7.40;;;8.30;72.90;;;;;;2109362;28;20709;-59
2021/01/08 10:31:33;;;;;;;10.02;7.95;;;8.20;72.80;;;;;;2109710;28;20032;-60
2021/01/08 10:32:34;;;;;;;9.55;7.40;;;8.20;72.80;;;;;;2108622;28;20042;-60
2021/01/08 10:33:34;;;;;;;8.20;6.88;;;8.20;72.80;;;;;;2108375;28;20020;-60
2021/01/08 10:34:44;;;;;;;8.90;7.15;;;8.30;72.80;;;;;;2108173;28;20181;-60
2021/01/08 10:35:47;;;;;;;9.65;7.78;;;8.30;72.60;;;;;;2109032;28;20063;-59
2021/01/08 10:36:47;;;;;;;11.13;8.50;;;8.30;72.70;;;;;;2108855;28;20024;-60
2021/01/08 10:37:48;;;;;;;10.63;8.52;;;8.30;72.80;;;;;;2108624;28;20032;-60
2021/01/08 10:38:48;;;;;;;11.15;8.88;;;8.30;72.70;;;;;;2108458;28;20032;-60
2021/01/08 10:39:49;;;;;;;10.00;8.82;;;8.30;72.70;;;;;;2109110;28;20421;-59
2021/01/08 10:40:50;;;;;;;10.93;8.48;;;8.30;72.80;;;;;;2108006;28;20552;-60
2021/01/08 10:41:50;;;;;;;10.85;8.55;;;8.40;73.00;;;;;;2108012;28;20055;-60
2021/01/08 10:42:52;;;;;;;11.90;7.95;;;8.40;73.00;;;;;;2109574;28;20024;-60
2021/01/08 10:43:52;;;;;;;10.13;8.70;;;8.40;73.10;;;;;;2109415;28;20066;-60
2021/01/08 10:44:53;;;;;;;13.77;8.63;;;8.40;72.90;;;;;;2109473;28;20028;-59
2021/01/08 10:45:53;;;;;;;12.73;9.60;;;8.40;72.80;;;;;;2109397;28;20431;-59
2021/01/08 10:46:54;;;;;;;10.52;8.60;;;8.40;72.80;;;;;;2109042;28;20111;-59
2021/01/08 10:47:55;;;;;;;9.25;8.18;;;8.40;72.80;;;;;;2107694;28;20038;-59
2021/01/08 10:48:55;;;;;;;10.68;9.35;;;8.40;72.80;;;;;;2106644;28;20031;-60
2021/01/08 10:49:56;;;;;;;11.10;8.73;;;8.40;72.70;;;;;;2108389;28;20103;-60
2021/01/08 10:50:57;;;;;;;9.80;8.50;;;8.50;72.70;;;;;;2100784;28;20119;-59
2021/01/08 10:51:58;;;;;;;10.32;8.52;;;8.50;72.50;;;;;;2100361;28;20024;-60
2021/01/08 10:52:59;;;;;;;10.20;8.07;;;8.50;72.40;;;;;;2108746;28;20130;-60
2021/01/08 10:54:00;;;;;;;10.38;8.38;;;8.50;72.30;;;;;;2108603;28;20024;-60
2021/01/08 10:55:01;;;;;;;10.02;8.20;;;8.50;72.30;;;;;;2109248;28;20058;-60
2021/01/08 10:56:03;;;;;;;9.77;8.15;;;8.50;72.20;;;;;;2109092;28;20112;-60
2021/01/08 10:57:04;;;;;;;9.85;7.55;;;8.50;72.10;;;;;;2108951;28;20117;-60
2021/01/08 10:58:04;;;;;;;9.85;8.07;;;8.50;72.20;;;;;;2108639;28;20028;-60
2021/01/08 10:59:05;;;;;;;10.40;8.07;;;8.50;72.10;;;;;;2107106;28;20037;-61
2021/01/08 11:00:10;;;;;;;10.07;8.63;;;8.50;72.00;;;;;;2108405;28;20028;-60
2021/01/08 11:01:10;;;;;;;10.32;8.18;;;8.50;71.90;;;;;;2108781;28;20036;-60
2021/01/08 11:02:11;;;;;;;11.02;8.57;;;8.50;71.90;;;;;;2109445;28;20458;-60
2021/01/08 11:03:12;;;;;;;10.48;8.45;;;8.50;71.80;;;;;;2101418;28;20029;-60
2021/01/08 11:04:13;;;;;;;10.27;8.38;;;8.50;71.80;;;;;;2101341;28;20040;-60
2021/01/08 11:05:14;;;;;;;10.13;8.10;;;8.50;71.70;;;;;;2108461;28;20035;-60
2021/01/08 11:06:18;;;;;;;9.15;7.57;;;8.50;71.70;;;;;;2108556;28;20556;-60
2021/01/08 11:07:19;;;;;;;9.52;8.52;;;8.50;71.70;;;;;;2108887;28;20023;-60
2021/01/08 11:08:19;;;;;;;9.38;8.18;;;8.60;71.90;;;;;;2108862;28;20291;-60
2021/01/08 11:09:20;;;;;;;9.88;8.40;;;8.60;71.90;;;;;;2107420;28;20031;-60
2021/01/08 11:10:20;;;;;;;11.80;9.20;;;8.60;71.90;;;;;;2108896;28;20042;-60
2021/01/08 11:11:21;;;;;;;10.68;8.45;;;8.60;71.80;;;;;;2109440;28;20020;-60
2021/01/08 11:12:21;;;;;;;9.75;7.53;;;8.60;71.70;;;;;;2109275;28;20024;-60
2021/01/08 11:13:22;;;;;;;9.15;7.65;;;8.60;71.70;;;;;;2109201;28;20047;-60
2021/01/08 11:14:23;;;;;;;9.55;8.05;;;8.60;71.80;;;;;;2109650;28;20028;-59
2021/01/08 11:15:23;;;;;;;10.95;8.18;;;8.60;71.70;;;;;;2109097;28;20040;-60
2021/01/08 11:16:24;;;;;;;9.85;8.25;;;8.60;71.60;;;;;;2108790;28;20055;-60
2021/01/08 11:17:25;;;;;;;9.75;7.85;;;8.60;71.60;;;;;;2107854;28;20020;-60
2021/01/08 11:18:26;;;;;;;10.30;8.48;;;8.60;71.50;;;;;;2108801;28;20462;-60
2021/01/08 11:19:26;;;;;;;8.70;7.68;;;8.60;71.40;;;;;;2107543;28;20085;-60
2021/01/08 11:20:27;;;;;;;11.05;8.00;;;8.60;71.50;;;;;;2109120;28;20062;-60
2021/01/08 11:21:27;;;;;;;9.73;8.05;;;8.60;71.50;;;;;;2108914;28;20347;-60
2021/01/08 11:22:28;;;;;;;10.35;8.38;;;8.60;71.50;;;;;;2105893;28;20646;-60
2021/01/08 11:23:29;;;;;;;9.40;8.40;;;8.60;71.50;;;;;;2109447;28;20416;-60
2021/01/08 11:24:29;;;;;;;10.82;8.85;;;8.70;71.50;;;;;;2109228;28;20042;-60
2021/01/08 11:25:30;;;;;;;9.65;8.65;;;8.70;71.40;;;;;;2108606;28;20479;-59
2021/01/08 11:26:30;;;;;;;11.00;8.75;;;8.70;71.50;;;;;;2109410;28;20012;-60
2021/01/08 11:27:31;;;;;;;10.48;8.43;;;8.70;71.50;;;;;;2108662;28;20032;-60
2021/01/08 11:28:31;;;;;;;10.98;8.60;;;8.70;71.40;;;;;;2107780;28;20091;-60
2021/01/08 11:29:33;;;;;;;11.32;8.70;;;8.70;71.30;;;;;;2109691;28;20413;-60
2021/01/08 11:30:34;;;;;;;11.70;8.57;;;8.70;71.20;;;;;;2108569;28;20358;-60
2021/01/08 11:31:36;;;;;;;9.88;8.43;;;8.70;71.10;;;;;;2109467;28;20062;-60
2021/01/08 11:32:36;;;;;;;11.20;9.50;;;8.70;71.10;;;;;;2107603;28;20051;-60
2021/01/08 11:33:37;;;;;;;10.30;8.82;;;8.70;71.20;;;;;;2109556;28;20580;-60
2021/01/08 11:34:40;;;;;;;10.18;8.80;;;8.70;71.30;;;;;;2109935;28;20371;-59
2021/01/08 11:35:41;;;;;;;9.73;8.23;;;8.70;71.50;;;;;;2109622;28;20083;-60
2021/01/08 11:36:41;;;;;;;9.75;7.70;;;8.70;71.50;;;;;;2108992;28;20119;-60
2021/01/08 11:37:42;;;;;;;9.20;8.05;;;8.70;71.50;;;;;;2108305;28;20021;-60
2021/01/08 11:38:43;;;;;;;10.48;7.95;;;8.70;71.40;;;;;;2107630;28;20031;-60
2021/01/08 11:39:46;;;;;;;10.40;7.85;;;8.80;71.40;;;;;;2108863;28;20070;-60
2021/01/08 11:40:47;;;;;;;9.95;8.43;;;8.80;71.40;;;;;;2108903;28;20039;-60
2021/01/08 11:41:47;;;;;;;9.57;7.72;;;8.80;71.50;;;;;;2109157;28;20058;-60
2021/01/08 11:42:48;;;;;;;10.90;8.65;;;8.80;71.40;;;;;;2109208;28;20067;-60
2021/01/08 11:43:49;;;;;;;11.57;8.65;;;8.80;71.50;;;;;;2108074;28;20028;-60
2021/01/08 11:44:49;;;;;;;9.23;7.22;;;8.80;71.40;;;;;;2109283;28;20028;-60
2021/01/08 11:45:50;;;;;;;8.48;7.07;;;8.80;71.40;;;;;;2108856;28;20994;-63
2021/01/08 11:46:51;;;;;;;8.40;7.40;;;8.80;71.40;;;;;;2111202;28;20490;-60
2021/01/08 11:47:52;;;;;;;7.88;6.88;;;8.80;72.00;;;;;;2102278;28;20036;-60
2021/01/08 11:48:52;;;;;;;8.18;7.28;;;8.90;71.20;;;;;;2102606;28;20032;-60
2021/01/08 11:49:53;;;;;;;8.25;7.22;;;8.90;71.10;;;;;;2110532;28;20042;-60
2021/01/08 11:50:53;;;;;;;7.93;6.80;;;8.90;71.10;;;;;;2109932;28;20016;-60
2021/01/08 11:51:56;;;;;;;7.80;7.00;;;8.90;71.10;;;;;;2110070;28;20527;-59
2021/01/08 11:52:57;;;;;;;8.43;7.10;;;8.90;71.20;;;;;;2110035;28;20031;-60
2021/01/08 11:53:57;;;;;;;8.18;7.10;;;8.90;71.30;;;;;;2109998;28;20088;-60
2021/01/08 11:54:58;;;;;;;8.38;6.88;;;9.00;71.10;;;;;;2109856;28;20369;-60
2021/01/08 11:55:58;;;;;;;7.22;6.25;;;9.00;71.00;;;;;;2110137;28;20427;-60
2021/01/08 11:57:04;;;;;;;7.38;6.38;;;9.00;70.90;;;;;;2109481;28;20424;-60
2021/01/08 11:58:04;;;;;;;7.20;6.50;;;9.00;70.80;;;;;;2110199;28;20153;-60
2021/01/08 11:59:05;;;;;;;7.07;6.32;;;9.00;70.90;;;;;;2109255;28;20734;-60
2021/01/08 12:00:06;;;;;;;7.35;6.55;;;9.00;71.50;;;;;;2102357;28;20100;-60
2021/01/08 12:01:08;;;;;;;8.20;6.97;;;9.00;70.60;;;;;;2102913;28;20038;-60
2021/01/08 12:02:08;;;;;;;7.88;7.07;;;9.00;71.20;;;;;;2110800;28;20446;-60
2021/01/08 12:03:09;;;;;;;7.00;6.30;;;9.00;70.50;;;;;;2110921;28;20020;-60
2021/01/08 12:04:10;;;;;;;9.40;7.72;;;9.00;70.60;;;;;;2110571;28;20016;-59
2021/01/08 12:05:11;;;;;;;6.88;6.18;;;9.00;70.60;;;;;;2108911;28;20410;-60
2021/01/08 12:06:12;;;;;;;7.18;6.43;;;9.10;70.60;;;;;;2108084;28;20029;-60
2021/01/08 12:07:12;;;;;;;8.52;7.38;;;9.10;70.60;;;;;;2109234;28;20375;-60
2021/01/08 12:08:13;;;;;;;7.97;7.18;;;9.10;70.30;;;;;;2109211;28;20039;-59
2021/01/08 12:09:13;;;;;;;9.00;6.95;;;9.10;70.20;;;;;;2108135;28;20035;-59
2021/01/08 12:10:14;;;;;;;9.40;8.40;;;9.10;70.10;;;;;;2099059;28;20563;-59
2021/01/08 12:11:15;;;;;;;8.80;7.80;;;9.10;70.10;;;;;;2108628;28;20028;-60
2021/01/08 12:12:15;;;;;;;7.40;6.40;;;9.10;70.00;;;;;;2110063;28;20111;-59
2021/01/08 12:13:17;;;;;;;8.90;7.43;;;9.10;69.80;;;;;;2109793;28;20365;-60
2021/01/08 12:14:17;;;;;;;8.50;7.47;;;9.10;69.50;;;;;;2110045;28;20031;-60
2021/01/08 12:15:18;;;;;;;8.52;7.15;;;9.10;69.60;;;;;;2110518;28;20373;-59
2021/01/08 12:16:32;;;;;;;8.55;7.38;;;9.00;69.70;;;;;;2108854;28;20528;-60
2021/01/08 12:17:32;;;;;;;7.30;6.60;;;9.10;69.70;;;;;;2109659;28;20055;-60
2021/01/08 12:18:33;;;;;;;7.70;6.90;;;9.10;69.80;;;;;;2108931;28;20607;-60
2021/01/08 12:19:34;;;;;;;7.45;6.63;;;9.10;69.70;;;;;;2109032;28;20032;-60
2021/01/08 12:20:36;;;;;;;7.93;7.13;;;9.10;69.90;;;;;;2108995;28;20020;-60
2021/01/08 12:21:36;;;;;;;8.07;6.55;;;9.00;69.80;;;;;;2109843;28;20769;-60
2021/01/08 12:22:37;;;;;;;7.13;6.40;;;9.00;70.60;;;;;;2109451;28;20122;-60
2021/01/08 12:23:37;;;;;;;8.30;7.25;;;9.10;70.10;;;;;;2105640;28;20028;-60
2021/01/08 12:24:38;;;;;;;7.90;6.78;;;9.10;70.00;;;;;;2105587;28;20595;-60
2021/01/08 12:25:40;;;;;;;7.65;6.85;;;9.00;69.90;;;;;;2108004;28;20094;-60
2021/01/08 12:26:41;;;;;;;8.93;7.40;;;9.00;70.00;;;;;;2109697;28;20028;-60
2021/01/08 12:27:41;;;;;;;8.43;7.18;;;9.10;70.10;;;;;;2108937;28;20056;-60
2021/01/08 12:28:42;;;;;;;7.78;6.90;;;9.10;70.20;;;;;;2109466;28;20058;-59
2021/01/08 12:29:43;;;;;;;9.05;7.65;;;9.00;70.10;;;;;;2109706;28;20422;-60
2021/01/08 12:30:44;;;;;;;8.20;6.63;;;9.00;70.00;;;;;;2109597;28;20081;-60
2021/01/08 12:31:45;;;;;;;7.60;6.72;;;9.00;70.00;;;;;;2110519;28;20028;-60
2021/01/08 12:32:45;;;;;;;9.93;8.23;;;9.10;70.10;;;;;;2110708;28;20112;-60
2021/01/08 12:33:46;;;;;;;9.77;7.78;;;9.10;70.10;;;;;;2110508;27;20039;-60